sensor_id;sensor_type;location;lat;lon;timestamp;pressure;altitude;pressure_sealevel;temperature;humidity
69411;BME280;56604;48.652;9.194;2024-02-14T00:01:47;96625.97;;;3.59;87.23
69411;BME280;56604;48.652;9.194;2024-02-14T00:04:13;96628.78;;;3.65;87.72
69411;BME280;56604;48.652;9.194;2024-02-14T00:06:39;96636.38;;;3.73;87.23
69411;BME280;56604;48.652;9.194;2024-02-14T00:09:05;96632.03;;;3.80;86.27
69411;BME280;56604;48.652;9.194;2024-02-14T00:11:32;96634.44;;;3.81;86.30
69411;BME280;56604;48.652;9.194;2024-02-14T00:13:58;96632.47;;;3.90;86.57
69411;BME280;56604;48.652;9.194;2024-02-14T00:16:27;96635.66;;;3.92;85.43
69411;BME280;56604;48.652;9.194;2024-02-14T00:18:55;96633.25;;;3.91;86.14
69411;BME280;56604;48.652;9.194;2024-02-14T00:21:22;96639.66;;;3.88;86.15
69411;BME280;56604;48.652;9.194;2024-02-14T00:23:47;96642.03;;;3.90;86.58
69411;BME280;56604;48.652;9.194;2024-02-14T00:26:12;96637.28;;;3.93;85.87
69411;BME280;56604;48.652;9.194;2024-02-14T00:28:38;96633.66;;;3.94;86.61
69411;BME280;56604;48.652;9.194;2024-02-14T00:31:05;96629.47;;;4.00;85.74
69411;BME280;56604;48.652;9.194;2024-02-14T00:33:30;96633.69;;;4.08;85.87
69411;BME280;56604;48.652;9.194;2024-02-14T00:35:55;96626.47;;;4.10;86.14
69411;BME280;56604;48.652;9.194;2024-02-14T00:38:21;96630.09;;;4.22;85.92
69411;BME280;56604;48.652;9.194;2024-02-14T00:40:46;96630.09;;;4.22;85.66
69411;BME280;56604;48.652;9.194;2024-02-14T00:43:12;96629.31;;;4.28;85.58
69411;BME280;56604;48.652;9.194;2024-02-14T00:45:38;96623.31;;;4.34;85.24
69411;BME280;56604;48.652;9.194;2024-02-14T00:48:03;96623.28;;;4.41;85.08
69411;BME280;56604;48.652;9.194;2024-02-14T00:50:29;96626.91;;;4.46;85.26
69411;BME280;56604;48.652;9.194;2024-02-14T00:52:54;96629.94;;;4.50;84.11
69411;BME280;56604;48.652;9.194;2024-02-14T00:55:19;96632.91;;;4.60;84.02
69411;BME280;56604;48.652;9.194;2024-02-14T00:57:45;96628.09;;;4.64;84.02
69411;BME280;56604;48.652;9.194;2024-02-14T01:00:10;96633.31;;;4.64;83.71
69411;BME280;56604;48.652;9.194;2024-02-14T01:02:35;96634.50;;;4.68;83.45
69411;BME280;56604;48.652;9.194;2024-02-14T01:05:01;96641.72;;;4.66;82.92
69411;BME280;56604;48.652;9.194;2024-02-14T01:07:27;96636.50;;;4.66;83.70
69411;BME280;56604;48.652;9.194;2024-02-14T01:09:52;96634.91;;;4.78;83.36
69411;BME280;56604;48.652;9.194;2024-02-14T01:12:17;96640.09;;;4.85;83.18
69411;BME280;56604;48.652;9.194;2024-02-14T01:14:43;96640.72;;;4.87;84.01
69411;BME280;56604;48.652;9.194;2024-02-14T01:17:08;96634.09;;;4.84;85.14
69411;BME280;56604;48.652;9.194;2024-02-14T01:19:33;96637.69;;;4.83;85.54
69411;BME280;56604;48.652;9.194;2024-02-14T01:21:59;96642.72;;;4.85;85.77
69411;BME280;56604;48.652;9.194;2024-02-14T01:24:24;96641.28;;;4.89;87.47
69411;BME280;56604;48.652;9.194;2024-02-14T01:26:51;96647.31;;;4.89;89.47
69411;BME280;56604;48.652;9.194;2024-02-14T01:29:19;96643.09;;;4.88;90.14
69411;BME280;56604;48.652;9.194;2024-02-14T01:31:44;96643.72;;;4.77;91.14
69411;BME280;56604;48.652;9.194;2024-02-14T01:34:09;96641.94;;;4.71;91.57
69411;BME280;56604;48.652;9.194;2024-02-14T01:36:35;96634.72;;;4.73;92.50
69411;BME280;56604;48.652;9.194;2024-02-14T01:39:00;96636.50;;;4.79;93.07
69411;BME280;56604;48.652;9.194;2024-02-14T01:41:26;96638.13;;;4.73;94.47
69411;BME280;56604;48.652;9.194;2024-02-14T01:43:51;96635.91;;;4.64;94.97
69411;BME280;56604;48.652;9.194;2024-02-14T01:46:17;96627.72;;;4.67;95.80
69411;BME280;56604;48.652;9.194;2024-02-14T01:48:42;96628.09;;;4.57;96.32
69411;BME280;56604;48.652;9.194;2024-02-14T01:51:11;96628.72;;;4.53;96.42
69411;BME280;56604;48.652;9.194;2024-02-14T01:53:37;96621.69;;;4.60;96.55
69411;BME280;56604;48.652;9.194;2024-02-14T01:56:04;96623.28;;;4.61;96.45
69411;BME280;56604;48.652;9.194;2024-02-14T01:58:30;96625.31;;;4.59;97.20
69411;BME280;56604;48.652;9.194;2024-02-14T02:00:56;96626.09;;;4.66;96.30
69411;BME280;56604;48.652;9.194;2024-02-14T02:03:24;96627.09;;;4.65;97.53
69411;BME280;56604;48.652;9.194;2024-02-14T02:05:50;96624.09;;;4.68;97.63
69411;BME280;56604;48.652;9.194;2024-02-14T02:08:15;96619.69;;;4.55;96.95
69411;BME280;56604;48.652;9.194;2024-02-14T02:10:41;96619.50;;;4.57;98.34
69411;BME280;56604;48.652;9.194;2024-02-14T02:13:06;96625.31;;;4.59;97.54
69411;BME280;56604;48.652;9.194;2024-02-14T02:15:34;96623.91;;;4.63;98.41
69411;BME280;56604;48.652;9.194;2024-02-14T02:18:00;96620.28;;;4.64;97.85
69411;BME280;56604;48.652;9.194;2024-02-14T02:20:26;96623.28;;;4.74;96.90
69411;BME280;56604;48.652;9.194;2024-02-14T02:22:53;96617.69;;;4.70;95.91
69411;BME280;56604;48.652;9.194;2024-02-14T02:25:18;96615.28;;;4.62;95.81
69411;BME280;56604;48.652;9.194;2024-02-14T02:27:48;96607.28;;;4.70;96.69
69411;BME280;56604;48.652;9.194;2024-02-14T02:32:50;96590.66;;;4.65;96.52
69411;BME280;56604;48.652;9.194;2024-02-14T02:35:17;96597.66;;;4.64;95.05
69411;BME280;56604;48.652;9.194;2024-02-14T02:37:44;96597.25;;;4.74;95.72
69411;BME280;56604;48.652;9.194;2024-02-14T02:40:11;96599.41;;;4.84;93.68
69411;BME280;56604;48.652;9.194;2024-02-14T02:42:38;96604.44;;;4.85;93.59
69411;BME280;56604;48.652;9.194;2024-02-14T02:45:03;96598.06;;;4.81;93.24
69411;BME280;56604;48.652;9.194;2024-02-14T02:47:31;96594.03;;;4.72;92.83
69411;BME280;56604;48.652;9.194;2024-02-14T02:49:56;96591.84;;;4.69;92.85
69411;BME280;56604;48.652;9.194;2024-02-14T02:52:22;96588.06;;;4.65;92.55
69411;BME280;56604;48.652;9.194;2024-02-14T02:54:48;96588.88;;;4.59;93.63
69411;BME280;56604;48.652;9.194;2024-02-14T02:57:13;96595.06;;;4.58;93.88
69411;BME280;56604;48.652;9.194;2024-02-14T02:59:39;96588.88;;;4.59;93.92
69411;BME280;56604;48.652;9.194;2024-02-14T03:02:08;96578.44;;;4.59;93.81
69411;BME280;56604;48.652;9.194;2024-02-14T03:04:33;96572.03;;;4.55;93.68
69411;BME280;56604;48.652;9.194;2024-02-14T03:06:59;96566.63;;;4.49;94.54
69411;BME280;56604;48.652;9.194;2024-02-14T03:09:24;96557.03;;;4.43;95.73
69411;BME280;56604;48.652;9.194;2024-02-14T03:11:51;96556.03;;;4.44;95.97
69411;BME280;56604;48.652;9.194;2024-02-14T03:14:16;96559.03;;;4.48;97.16
69411;BME280;56604;48.652;9.194;2024-02-14T03:16:42;96560.03;;;4.47;96.60
69411;BME280;56604;48.652;9.194;2024-02-14T03:19:07;96558.81;;;4.49;95.94
69411;BME280;56604;48.652;9.194;2024-02-14T03:21:33;96555.63;;;4.54;95.78
69411;BME280;56604;48.652;9.194;2024-02-14T03:24:01;96554.00;;;4.60;94.73
69411;BME280;56604;48.652;9.194;2024-02-14T03:26:26;96562.22;;;4.57;94.98
69411;BME280;56604;48.652;9.194;2024-02-14T03:28:52;96572.25;;;4.46;95.34
69411;BME280;56604;48.652;9.194;2024-02-14T03:31:19;96577.84;;;4.43;95.28
69411;BME280;56604;48.652;9.194;2024-02-14T03:33:45;96582.47;;;4.48;95.52
69411;BME280;56604;48.652;9.194;2024-02-14T03:36:11;96596.47;;;4.54;95.32
69411;BME280;56604;48.652;9.194;2024-02-14T03:38:36;96598.88;;;4.48;95.28
69411;BME280;56604;48.652;9.194;2024-02-14T03:41:02;96604.28;;;4.47;95.08
69411;BME280;56604;48.652;9.194;2024-02-14T03:43:27;96609.69;;;4.45;94.91
69411;BME280;56604;48.652;9.194;2024-02-14T03:45:53;96608.91;;;4.45;94.81
69411;BME280;56604;48.652;9.194;2024-02-14T03:48:19;96613.09;;;4.39;94.39
69411;BME280;56604;48.652;9.194;2024-02-14T03:50:45;96612.09;;;4.27;94.57
69411;BME280;56604;48.652;9.194;2024-02-14T03:53:10;96618.91;;;4.21;96.38
69411;BME280;56604;48.652;9.194;2024-02-14T03:55:40;96610.09;;;4.16;96.24
69411;BME280;56604;48.652;9.194;2024-02-14T03:58:05;96617.69;;;4.24;95.81
69411;BME280;56604;48.652;9.194;2024-02-14T04:00:31;96620.09;;;4.32;95.36
69411;BME280;56604;48.652;9.194;2024-02-14T04:02:57;96617.69;;;4.37;96.08
69411;BME280;56604;48.652;9.194;2024-02-14T04:05:25;96623.31;;;4.47;94.69
69411;BME280;56604;48.652;9.194;2024-02-14T04:07:52;96617.09;;;4.48;93.53
69411;BME280;56604;48.652;9.194;2024-02-14T04:10:18;96626.50;;;4.49;93.56
69411;BME280;56604;48.652;9.194;2024-02-14T04:12:43;96623.53;;;4.53;94.81
69411;BME280;56604;48.652;9.194;2024-02-14T04:15:09;96626.50;;;4.49;93.03
69411;BME280;56604;48.652;9.194;2024-02-14T04:17:34;96617.31;;;4.54;92.68
69411;BME280;56604;48.652;9.194;2024-02-14T04:20:00;96610.09;;;4.56;92.61
69411;BME280;56604;48.652;9.194;2024-02-14T04:22:25;96618.88;;;4.55;91.91
69411;BME280;56604;48.652;9.194;2024-02-14T04:24:50;96610.50;;;4.53;91.97
69411;BME280;56604;48.652;9.194;2024-02-14T04:27:15;96607.66;;;4.61;91.16
69411;BME280;56604;48.652;9.194;2024-02-14T04:29:45;96615.88;;;4.71;90.85
69411;BME280;56604;48.652;9.194;2024-02-14T04:32:10;96613.88;;;4.66;90.29
69411;BME280;56604;48.652;9.194;2024-02-14T04:34:36;96622.50;;;4.67;90.06
69411;BME280;56604;48.652;9.194;2024-02-14T04:37:04;96608.09;;;4.64;90.17
69411;BME280;56604;48.652;9.194;2024-02-14T04:39:35;96611.47;;;4.65;88.96
69411;BME280;56604;48.652;9.194;2024-02-14T04:42:01;96614.09;;;4.65;89.90
69411;BME280;56604;48.652;9.194;2024-02-14T04:44:28;96619.31;;;4.58;89.99
69411;BME280;56604;48.652;9.194;2024-02-14T04:46:53;96623.09;;;4.62;89.29
69411;BME280;56604;48.652;9.194;2024-02-14T04:49:18;96627.31;;;4.57;88.47
69411;BME280;56604;48.652;9.194;2024-02-14T04:51:45;96631.31;;;4.66;88.19
69411;BME280;56604;48.652;9.194;2024-02-14T04:54:10;96626.91;;;4.60;89.82
69411;BME280;56604;48.652;9.194;2024-02-14T04:56:35;96625.31;;;4.59;88.79
69411;BME280;56604;48.652;9.194;2024-02-14T04:59:00;96637.13;;;4.55;90.07
69411;BME280;56604;48.652;9.194;2024-02-14T05:01:27;96640.13;;;4.51;90.79
69411;BME280;56604;48.652;9.194;2024-02-14T05:03:52;96635.13;;;4.50;90.55
69411;BME280;56604;48.652;9.194;2024-02-14T05:06:17;96641.13;;;4.50;90.87
69411;BME280;56604;48.652;9.194;2024-02-14T05:08:43;96641.53;;;4.54;89.45
69411;BME280;56604;48.652;9.194;2024-02-14T05:11:08;96642.72;;;4.65;90.03
69411;BME280;56604;48.652;9.194;2024-02-14T05:13:33;96638.94;;;4.67;88.25
69411;BME280;56604;48.652;9.194;2024-02-14T05:16:02;96634.91;;;4.71;88.29
69411;BME280;56604;48.652;9.194;2024-02-14T05:18:28;96640.31;;;4.77;88.22
69411;BME280;56604;48.652;9.194;2024-02-14T05:20:53;96629.69;;;4.85;87.32
69411;BME280;56604;48.652;9.194;2024-02-14T05:23:18;96637.13;;;4.81;88.29
69411;BME280;56604;48.652;9.194;2024-02-14T05:25:44;96628.06;;;4.84;87.93
69411;BME280;56604;48.652;9.194;2024-02-14T05:28:10;96638.50;;;4.90;87.46
69411;BME280;56604;48.652;9.194;2024-02-14T05:30:40;96639.47;;;4.89;87.15
69411;BME280;56604;48.652;9.194;2024-02-14T05:33:05;96639.28;;;4.97;86.38
69411;BME280;56604;48.652;9.194;2024-02-14T05:35:31;96628.44;;;5.01;85.76
69411;BME280;56604;48.652;9.194;2024-02-14T05:37:56;96631.66;;;5.03;85.38
69411;BME280;56604;48.652;9.194;2024-02-14T05:40:21;96628.03;;;5.04;85.41
69411;BME280;56604;48.652;9.194;2024-02-14T05:42:47;96625.03;;;5.00;85.75
69411;BME280;56604;48.652;9.194;2024-02-14T05:45:12;96628.03;;;5.04;85.07
69411;BME280;56604;48.652;9.194;2024-02-14T05:47:38;96620.06;;;4.99;85.11
69411;BME280;56604;48.652;9.194;2024-02-14T05:50:05;96616.47;;;4.93;85.71
69411;BME280;56604;48.652;9.194;2024-02-14T05:52:30;96609.81;;;4.97;86.09
69411;BME280;56604;48.652;9.194;2024-02-14T05:54:56;96624.06;;;4.94;85.98
69411;BME280;56604;48.652;9.194;2024-02-14T05:57:21;96616.44;;;5.00;85.71
69411;BME280;56604;48.652;9.194;2024-02-14T05:59:46;96615.41;;;5.01;85.29
69411;BME280;56604;48.652;9.194;2024-02-14T06:02:11;96616.81;;;5.03;85.26
69411;BME280;56604;48.652;9.194;2024-02-14T06:04:37;96612.25;;;4.99;84.53
69411;BME280;56604;48.652;9.194;2024-02-14T06:07:02;96622.84;;;4.97;85.02
69411;BME280;56604;48.652;9.194;2024-02-14T06:09:30;96627.28;;;4.90;85.28
69411;BME280;56604;48.652;9.194;2024-02-14T06:11:55;96629.25;;;4.94;84.97
69411;BME280;56604;48.652;9.194;2024-02-14T06:14:21;96633.28;;;4.90;85.63
69411;BME280;56604;48.652;9.194;2024-02-14T06:16:46;96628.09;;;4.90;85.28
69411;BME280;56604;48.652;9.194;2024-02-14T06:19:11;96634.50;;;4.88;85.31
69411;BME280;56604;48.652;9.194;2024-02-14T06:21:37;96632.06;;;4.86;86.44
69411;BME280;56604;48.652;9.194;2024-02-14T06:24:03;96632.69;;;4.88;86.32
69411;BME280;56604;48.652;9.194;2024-02-14T06:26:30;96637.28;;;4.86;86.39
69411;BME280;56604;48.652;9.194;2024-02-14T06:28:55;96642.91;;;4.90;86.45
69411;BME280;56604;48.652;9.194;2024-02-14T06:31:22;96638.50;;;4.90;86.71
69411;BME280;56604;48.652;9.194;2024-02-14T06:33:47;96644.28;;;4.99;85.91
69411;BME280;56604;48.652;9.194;2024-02-14T06:36:13;96639.06;;;5.06;85.58
69411;BME280;56604;48.652;9.194;2024-02-14T06:38:38;96647.28;;;5.16;85.91
69411;BME280;56604;48.652;9.194;2024-02-14T06:41:05;96650.22;;;5.26;84.77
69411;BME280;56604;48.652;9.194;2024-02-14T06:43:31;96656.03;;;5.35;84.33
69411;BME280;56604;48.652;9.194;2024-02-14T06:45:56;96656.22;;;5.47;83.67
69411;BME280;56604;48.652;9.194;2024-02-14T06:48:22;96659.44;;;5.42;84.21
69411;BME280;56604;48.652;9.194;2024-02-14T06:50:49;96659.19;;;5.50;83.70
69411;BME280;56604;48.652;9.194;2024-02-14T06:53:14;96661.19;;;5.48;83.59
69411;BME280;56604;48.652;9.194;2024-02-14T06:55:40;96659.19;;;5.50;83.11
69411;BME280;56604;48.652;9.194;2024-02-14T06:58:05;96663.16;;;5.59;83.21
69411;BME280;56604;48.652;9.194;2024-02-14T07:00:30;96653.56;;;5.53;82.69
69411;BME280;56604;48.652;9.194;2024-02-14T07:02:56;96649.19;;;5.47;82.64
69411;BME280;56604;48.652;9.194;2024-02-14T07:05:21;96649.19;;;5.47;83.13
69411;BME280;56604;48.652;9.194;2024-02-14T07:07:46;96647.16;;;5.56;82.41
69411;BME280;56604;48.652;9.194;2024-02-14T07:10:12;96642.56;;;5.45;82.63
69411;BME280;56604;48.652;9.194;2024-02-14T07:12:37;96647.75;;;5.51;82.44
69411;BME280;56604;48.652;9.194;2024-02-14T07:15:04;96648.72;;;5.57;82.90
69411;BME280;56604;48.652;9.194;2024-02-14T07:17:30;96654.91;;;5.69;82.71
69411;BME280;56604;48.652;9.194;2024-02-14T07:19:56;96653.44;;;5.86;83.51
69411;BME280;56604;48.652;9.194;2024-02-14T07:22:22;96648.34;;;6.37;84.02
69411;BME280;56604;48.652;9.194;2024-02-14T07:24:47;96649.78;;;6.33;80.24
69411;BME280;56604;48.652;9.194;2024-02-14T07:27:14;96652.16;;;6.34;80.48
69411;BME280;56604;48.652;9.194;2024-02-14T07:29:40;96658.75;;;6.43;80.61
69411;BME280;56604;48.652;9.194;2024-02-14T07:32:05;96663.00;;;6.63;79.16
69411;BME280;56604;48.652;9.194;2024-02-14T07:34:34;96655.47;;;6.98;78.52
69411;BME280;56604;48.652;9.194;2024-02-14T07:36:59;96653.47;;;7.37;75.97
69411;BME280;56604;48.652;9.194;2024-02-14T07:39:24;96651.06;;;7.35;76.08
69411;BME280;56604;48.652;9.194;2024-02-14T07:41:50;96661.03;;;7.27;76.04
69411;BME280;56604;48.652;9.194;2024-02-14T07:44:15;96663.19;;;7.11;76.75
69411;BME280;56604;48.652;9.194;2024-02-14T07:46:41;96659.47;;;7.01;77.65
69411;BME280;56604;48.652;9.194;2024-02-14T07:49:06;96658.78;;;6.87;78.12
69411;BME280;56604;48.652;9.194;2024-02-14T07:51:31;96665.94;;;6.98;78.09
69411;BME280;56604;48.652;9.194;2024-02-14T07:54:02;96672.41;;;7.14;77.64
69411;BME280;56604;48.652;9.194;2024-02-14T07:56:28;96674.22;;;7.13;78.60
69411;BME280;56604;48.652;9.194;2024-02-14T07:58:54;96664.34;;;7.34;77.98
69411;BME280;56604;48.652;9.194;2024-02-14T08:01:19;96672.38;;;7.57;76.81
69411;BME280;56604;48.652;9.194;2024-02-14T08:03:44;96676.13;;;7.61;76.28
69411;BME280;56604;48.652;9.194;2024-02-14T08:06:12;96687.91;;;7.71;76.53
69411;BME280;56604;48.652;9.194;2024-02-14T08:08:38;96690.81;;;7.81;75.25
69411;BME280;56604;48.652;9.194;2024-02-14T08:11:04;96689.50;;;7.90;75.79
69411;BME280;56604;48.652;9.194;2024-02-14T08:13:29;96692.25;;;7.95;75.43
69411;BME280;56604;48.652;9.194;2024-02-14T08:15:54;96698.19;;;8.02;74.95
69411;BME280;56604;48.652;9.194;2024-02-14T08:18:20;96703.13;;;8.10;75.10
69411;BME280;56604;48.652;9.194;2024-02-14T08:20:45;96698.47;;;8.13;76.19
69411;BME280;56604;48.652;9.194;2024-02-14T08:23:10;96699.25;;;8.13;74.91
69411;BME280;56604;48.652;9.194;2024-02-14T08:25:36;96695.53;;;8.21;76.30
69411;BME280;56604;48.652;9.194;2024-02-14T08:28:01;96702.63;;;8.02;76.14
69411;BME280;56604;48.652;9.194;2024-02-14T08:30:27;96704.97;;;8.22;74.97
69411;BME280;56604;48.652;9.194;2024-02-14T08:32:53;96703.50;;;8.44;75.36
69411;BME280;56604;48.652;9.194;2024-02-14T08:35:18;96707.16;;;8.25;75.11
69411;BME280;56604;48.652;9.194;2024-02-14T08:37:43;96708.03;;;8.37;75.09
69411;BME280;56604;48.652;9.194;2024-02-14T08:40:09;96716.88;;;8.54;75.55
69411;BME280;56604;48.652;9.194;2024-02-14T08:42:37;96716.66;;;8.68;73.90
69411;BME280;56604;48.652;9.194;2024-02-14T08:45:04;96724.00;;;8.89;73.09
69411;BME280;56604;48.652;9.194;2024-02-14T08:47:29;96721.06;;;8.97;72.84
69411;BME280;56604;48.652;9.194;2024-02-14T08:49:54;96720.66;;;8.82;74.96
69411;BME280;56604;48.652;9.194;2024-02-14T08:52:20;96724.47;;;9.10;72.72
69411;BME280;56604;48.652;9.194;2024-02-14T08:54:46;96722.09;;;9.32;71.94
69411;BME280;56604;48.652;9.194;2024-02-14T08:57:11;96723.22;;;9.00;72.66
69411;BME280;56604;48.652;9.194;2024-02-14T08:59:37;96715.56;;;8.87;74.41
69411;BME280;56604;48.652;9.194;2024-02-14T09:02:02;96719.00;;;8.99;73.96
69411;BME280;56604;48.652;9.194;2024-02-14T09:04:28;96714.44;;;9.07;73.53
69411;BME280;56604;48.652;9.194;2024-02-14T09:06:53;96714.91;;;9.04;73.90
69411;BME280;56604;48.652;9.194;2024-02-14T09:09:18;96718.56;;;9.03;74.55
69411;BME280;56604;48.652;9.194;2024-02-14T09:11:44;96719.56;;;9.01;74.28
69411;BME280;56604;48.652;9.194;2024-02-14T09:14:11;96721.06;;;9.21;74.42
69411;BME280;56604;48.652;9.194;2024-02-14T09:16:37;96718.78;;;9.24;74.01
69411;BME280;56604;48.652;9.194;2024-02-14T09:19:02;96723.56;;;9.16;74.59
69411;BME280;56604;48.652;9.194;2024-02-14T09:21:28;96723.56;;;9.16;74.13
69411;BME280;56604;48.652;9.194;2024-02-14T09:23:54;96719.22;;;9.10;74.70
69411;BME280;56604;48.652;9.194;2024-02-14T09:26:20;96724.94;;;9.30;74.03
69411;BME280;56604;48.652;9.194;2024-02-14T09:28:45;96725.03;;;9.47;73.94
69411;BME280;56604;48.652;9.194;2024-02-14T09:31:10;96720.69;;;9.53;73.36
69411;BME280;56604;48.652;9.194;2024-02-14T09:33:37;96717.06;;;9.65;73.95
69411;BME280;56604;48.652;9.194;2024-02-14T09:36:03;96720.84;;;9.46;73.01
69411;BME280;56604;48.652;9.194;2024-02-14T09:38:30;96720.84;;;9.98;73.38
69411;BME280;56604;48.652;9.194;2024-02-14T09:41:05;96718.72;;;10.24;72.06
69411;BME280;56604;48.652;9.194;2024-02-14T09:43:34;96724.88;;;9.89;72.46
69411;BME280;56604;48.652;9.194;2024-02-14T09:46:02;96728.78;;;10.27;70.81
69411;BME280;56604;48.652;9.194;2024-02-14T09:48:29;96732.50;;;10.43;71.65
69411;BME280;56604;48.652;9.194;2024-02-14T09:50:56;96725.06;;;10.68;70.25
69411;BME280;56604;48.652;9.194;2024-02-14T09:53:22;96712.38;;;10.65;71.34
69411;BME280;56604;48.652;9.194;2024-02-14T09:55:49;96718.53;;;11.05;69.34
69411;BME280;56604;48.652;9.194;2024-02-14T09:58:15;96713.72;;;11.18;69.65
69411;BME280;56604;48.652;9.194;2024-02-14T10:00:41;96711.19;;;11.23;68.99
69411;BME280;56604;48.652;9.194;2024-02-14T10:03:07;96708.50;;;11.57;68.77
69411;BME280;56604;48.652;9.194;2024-02-14T10:05:32;96710.84;;;11.37;69.46
69411;BME280;56604;48.652;9.194;2024-02-14T10:07:57;96713.28;;;11.21;70.84
69411;BME280;56604;48.652;9.194;2024-02-14T10:10:24;96705.59;;;11.20;70.88
69411;BME280;56604;48.652;9.194;2024-02-14T10:12:49;96708.16;;;11.32;70.75
69411;BME280;56604;48.652;9.194;2024-02-14T10:15:15;96701.22;;;11.25;71.07
69411;BME280;56604;48.652;9.194;2024-02-14T10:17:40;96697.78;;;11.42;71.88
69411;BME280;56604;48.652;9.194;2024-02-14T10:20:06;96706.09;;;11.00;71.30
69411;BME280;56604;48.652;9.194;2024-02-14T10:22:36;96711.34;;;11.17;72.83
69411;BME280;56604;48.652;9.194;2024-02-14T10:25:05;96704.66;;;10.92;73.15
69411;BME280;56604;48.652;9.194;2024-02-14T10:27:37;96695.94;;;11.25;73.50
69411;BME280;56604;48.652;9.194;2024-02-14T10:30:05;96697.47;;;11.60;72.34
69411;BME280;56604;48.652;9.194;2024-02-14T10:32:33;96686.34;;;11.97;71.04
69411;BME280;56604;48.652;9.194;2024-02-14T10:34:59;96690.91;;;12.02;70.47
69411;BME280;56604;48.652;9.194;2024-02-14T10:37:26;96689.00;;;11.97;70.02
69411;BME280;56604;48.652;9.194;2024-02-14T10:39:56;96694.88;;;12.04;70.55
69411;BME280;56604;48.652;9.194;2024-02-14T10:42:21;96700.25;;;12.14;69.09
69411;BME280;56604;48.652;9.194;2024-02-14T10:44:46;96692.69;;;11.96;69.72
69411;BME280;56604;48.652;9.194;2024-02-14T10:47:19;96694.66;;;12.33;69.63
69411;BME280;56604;48.652;9.194;2024-02-14T10:49:47;96686.91;;;12.21;69.68
69411;BME280;56604;48.652;9.194;2024-02-14T10:52:15;96686.69;;;12.28;69.60
69411;BME280;56604;48.652;9.194;2024-02-14T10:54:42;96689.91;;;12.35;70.44
69411;BME280;56604;48.652;9.194;2024-02-14T10:57:08;96689.19;;;12.40;70.42
69411;BME280;56604;48.652;9.194;2024-02-14T10:59:39;96697.81;;;12.35;70.20
69411;BME280;56604;48.652;9.194;2024-02-14T11:02:07;96694.47;;;12.18;71.22
69411;BME280;56604;48.652;9.194;2024-02-14T11:04:33;96693.50;;;12.24;71.04
69411;BME280;56604;48.652;9.194;2024-02-14T11:06:58;96695.88;;;12.25;71.30
69411;BME280;56604;48.652;9.194;2024-02-14T11:09:36;96706.13;;;12.22;72.01
69411;BME280;56604;48.652;9.194;2024-02-14T11:12:02;96693.72;;;12.44;71.97
69411;BME280;56604;48.652;9.194;2024-02-14T11:14:32;96706.94;;;12.49;71.63
69411;BME280;56604;48.652;9.194;2024-02-14T11:17:02;96711.69;;;12.79;71.35
69411;BME280;56604;48.652;9.194;2024-02-14T11:19:33;96709.47;;;12.66;71.36
69411;BME280;56604;48.652;9.194;2024-02-14T11:22:12;96716.75;;;12.81;70.39
69411;BME280;56604;48.652;9.194;2024-02-14T11:24:38;96714.63;;;12.83;70.34
69411;BME280;56604;48.652;9.194;2024-02-14T11:27:09;96707.59;;;12.94;71.30
69411;BME280;56604;48.652;9.194;2024-02-14T11:29:35;96708.75;;;13.08;69.92
69411;BME280;56604;48.652;9.194;2024-02-14T11:32:01;96716.25;;;13.21;69.64
69411;BME280;56604;48.652;9.194;2024-02-14T11:34:27;96708.47;;;13.04;70.16
69411;BME280;56604;48.652;9.194;2024-02-14T11:36:53;96705.53;;;12.69;71.80
69411;BME280;56604;48.652;9.194;2024-02-14T11:39:20;96711.59;;;12.69;72.08
69411;BME280;56604;48.652;9.194;2024-02-14T11:41:45;96705.63;;;12.79;71.75
69411;BME280;56604;48.652;9.194;2024-02-14T11:44:11;96706.78;;;12.93;71.10
69411;BME280;56604;48.652;9.194;2024-02-14T11:46:37;96700.34;;;12.79;71.13
69411;BME280;56604;48.652;9.194;2024-02-14T11:49:04;96707.88;;;12.97;70.95
69411;BME280;56604;48.652;9.194;2024-02-14T11:51:30;96695.97;;;12.90;71.51
69411;BME280;56604;48.652;9.194;2024-02-14T11:53:57;96694.75;;;13.08;70.80
69411;BME280;56604;48.652;9.194;2024-02-14T11:56:30;96695.09;;;13.16;70.47
69411;BME280;56604;48.652;9.194;2024-02-14T11:58:59;96690.38;;;13.61;70.20
69411;BME280;56604;48.652;9.194;2024-02-14T12:01:25;96690.91;;;13.68;68.55
69411;BME280;56604;48.652;9.194;2024-02-14T12:03:51;96697.69;;;13.48;70.38
69411;BME280;56604;48.652;9.194;2024-02-14T12:06:17;96691.94;;;13.62;69.93
69411;BME280;56604;48.652;9.194;2024-02-14T12:08:43;96694.31;;;13.58;70.05
69411;BME280;56604;48.652;9.194;2024-02-14T12:11:09;96702.75;;;13.55;70.66
69411;BME280;56604;48.652;9.194;2024-02-14T12:13:34;96690.31;;;13.50;71.16
69411;BME280;56604;48.652;9.194;2024-02-14T12:16:03;96702.66;;;13.40;71.11
69411;BME280;56604;48.652;9.194;2024-02-14T12:18:28;96697.13;;;13.41;71.35
69411;BME280;56604;48.652;9.194;2024-02-14T12:21:03;96703.06;;;13.21;71.82
69411;BME280;56604;48.652;9.194;2024-02-14T12:23:33;96699.28;;;13.49;71.56
69411;BME280;56604;48.652;9.194;2024-02-14T12:26:02;96701.97;;;13.60;70.32
69411;BME280;56604;48.652;9.194;2024-02-14T12:28:29;96707.66;;;13.36;70.43
69411;BME280;56604;48.652;9.194;2024-02-14T12:30:56;96710.13;;;13.16;71.93
69411;BME280;56604;48.652;9.194;2024-02-14T12:33:22;96709.03;;;13.12;72.74
69411;BME280;56604;48.652;9.194;2024-02-14T12:35:50;96706.94;;;13.14;73.35
69411;BME280;56604;48.652;9.194;2024-02-14T12:38:18;96709.03;;;13.12;72.80
69411;BME280;56604;48.652;9.194;2024-02-14T12:40:43;96704.56;;;13.12;72.87
69411;BME280;56604;48.652;9.194;2024-02-14T12:43:13;96694.81;;;13.13;72.93
69411;BME280;56604;48.652;9.194;2024-02-14T12:45:39;96695.91;;;13.22;71.82
69411;BME280;56604;48.652;9.194;2024-02-14T12:48:06;96683.34;;;13.29;72.69
69411;BME280;56604;48.652;9.194;2024-02-14T12:50:34;96678.16;;;13.49;70.73
69411;BME280;56604;48.652;9.194;2024-02-14T12:53:00;96670.69;;;13.36;70.59
69411;BME280;56604;48.652;9.194;2024-02-14T12:55:26;96681.75;;;13.33;71.09
69411;BME280;56604;48.652;9.194;2024-02-14T12:57:54;96692.53;;;13.74;70.55
69411;BME280;56604;48.652;9.194;2024-02-14T13:00:19;96697.81;;;13.69;70.07
69411;BME280;56604;48.652;9.194;2024-02-14T13:02:46;96689.44;;;13.92;69.26
69411;BME280;56604;48.652;9.194;2024-02-14T13:05:12;96683.66;;;14.06;69.40